sensor_id;sensor_type;location;lat;lon;timestamp;P1;durP1;ratioP1;P2;durP2;ratioP2
19675;SDS011;39539;52.202;9.876;2024-01-15T00:02:07;10.85;;;9.70;;
19675;SDS011;39539;52.202;9.876;2024-01-15T00:04:39;12.45;;;10.13;;
19675;SDS011;39539;52.202;9.876;2024-01-15T00:07:06;9.90;;;8.00;;
19675;SDS011;39539;52.202;9.876;2024-01-15T00:09:31;11.50;;;8.95;;
19675;SDS011;39539;52.202;9.876;2024-01-15T00:11:57;9.90;;;8.35;;
19675;SDS011;39539;52.202;9.876;2024-01-15T00:14:22;9.88;;;8.85;;
19675;SDS011;39539;52.202;9.876;2024-01-15T00:16:48;9.65;;;8.60;;
19675;SDS011;39539;52.202;9.876;2024-01-15T00:19:17;9.82;;;8.82;;
19675;SDS011;39539;52.202;9.876;2024-01-15T00:21:43;11.05;;;9.73;;
19675;SDS011;39539;52.202;9.876;2024-01-15T00:24:09;10.52;;;9.40;;
19675;SDS011;39539;52.202;9.876;2024-01-15T00:26:35;8.73;;;7.32;;
19675;SDS011;39539;52.202;9.876;2024-01-15T00:29:00;8.70;;;7.70;;
19675;SDS011;39539;52.202;9.876;2024-01-15T00:31:25;7.57;;;6.63;;
19675;SDS011;39539;52.202;9.876;2024-01-15T00:33:51;7.72;;;6.55;;
19675;SDS011;39539;52.202;9.876;2024-01-15T00:36:16;7.25;;;6.40;;
19675;SDS011;39539;52.202;9.876;2024-01-15T00:38:42;7.70;;;6.38;;
19675;SDS011;39539;52.202;9.876;2024-01-15T00:41:08;6.57;;;5.55;;
19675;SDS011;39539;52.202;9.876;2024-01-15T00:43:35;6.93;;;6.22;;
19675;SDS011;39539;52.202;9.876;2024-01-15T00:46:03;7.47;;;5.88;;
19675;SDS011;39539;52.202;9.876;2024-01-15T00:48:29;7.55;;;6.45;;
19675;SDS011;39539;52.202;9.876;2024-01-15T00:50:54;6.32;;;5.72;;
19675;SDS011;39539;52.202;9.876;2024-01-15T00:53:20;7.30;;;6.57;;
19675;SDS011;39539;52.202;9.876;2024-01-15T00:55:47;7.63;;;6.82;;
19675;SDS011;39539;52.202;9.876;2024-01-15T00:58:13;7.03;;;5.93;;
19675;SDS011;39539;52.202;9.876;2024-01-15T01:00:41;7.78;;;6.00;;
19675;SDS011;39539;52.202;9.876;2024-01-15T01:03:07;6.68;;;5.93;;
19675;SDS011;39539;52.202;9.876;2024-01-15T01:05:33;6.25;;;5.63;;
19675;SDS011;39539;52.202;9.876;2024-01-15T01:07:59;6.65;;;5.95;;
19675;SDS011;39539;52.202;9.876;2024-01-15T01:10:25;6.35;;;5.75;;
19675;SDS011;39539;52.202;9.876;2024-01-15T01:12:50;7.07;;;5.18;;
19675;SDS011;39539;52.202;9.876;2024-01-15T01:15:16;6.60;;;5.88;;
19675;SDS011;39539;52.202;9.876;2024-01-15T01:17:41;7.07;;;5.38;;
19675;SDS011;39539;52.202;9.876;2024-01-15T01:20:07;6.07;;;5.32;;
19675;SDS011;39539;52.202;9.876;2024-01-15T01:22:34;7.40;;;4.50;;
19675;SDS011;39539;52.202;9.876;2024-01-15T01:24:59;10.98;;;5.57;;
19675;SDS011;39539;52.202;9.876;2024-01-15T01:27:25;6.22;;;4.75;;
19675;SDS011;39539;52.202;9.876;2024-01-15T01:29:50;5.25;;;4.68;;
19675;SDS011;39539;52.202;9.876;2024-01-15T01:32:16;6.82;;;4.88;;
19675;SDS011;39539;52.202;9.876;2024-01-15T01:34:42;10.13;;;4.35;;
19675;SDS011;39539;52.202;9.876;2024-01-15T01:37:07;5.78;;;4.40;;
19675;SDS011;39539;52.202;9.876;2024-01-15T01:39:33;4.72;;;3.75;;
19675;SDS011;39539;52.202;9.876;2024-01-15T01:41:58;7.20;;;4.30;;
19675;SDS011;39539;52.202;9.876;2024-01-15T01:44:24;8.05;;;4.50;;
19675;SDS011;39539;52.202;9.876;2024-01-15T01:46:49;10.50;;;4.28;;
19675;SDS011;39539;52.202;9.876;2024-01-15T01:49:15;9.55;;;4.22;;
19675;SDS011;39539;52.202;9.876;2024-01-15T01:51:41;7.53;;;4.28;;
19675;SDS011;39539;52.202;9.876;2024-01-15T01:54:06;9.98;;;3.80;;
19675;SDS011;39539;52.202;9.876;2024-01-15T01:56:33;5.13;;;3.50;;
19675;SDS011;39539;52.202;9.876;2024-01-15T01:58:59;9.40;;;3.90;;
19675;SDS011;39539;52.202;9.876;2024-01-15T02:01:25;8.80;;;4.00;;
19675;SDS011;39539;52.202;9.876;2024-01-15T02:03:51;11.63;;;4.10;;
19675;SDS011;39539;52.202;9.876;2024-01-15T02:06:16;5.30;;;3.80;;
19675;SDS011;39539;52.202;9.876;2024-01-15T02:08:43;6.60;;;4.40;;
19675;SDS011;39539;52.202;9.876;2024-01-15T02:11:08;5.13;;;3.38;;
19675;SDS011;39539;52.202;9.876;2024-01-15T02:13:34;5.85;;;3.45;;
19675;SDS011;39539;52.202;9.876;2024-01-15T02:15:59;7.60;;;3.60;;
19675;SDS011;39539;52.202;9.876;2024-01-15T02:18:25;8.05;;;3.50;;
19675;SDS011;39539;52.202;9.876;2024-01-15T02:20:50;4.22;;;2.75;;
19675;SDS011;39539;52.202;9.876;2024-01-15T02:23:15;7.05;;;3.30;;
19675;SDS011;39539;52.202;9.876;2024-01-15T02:25:41;6.72;;;3.40;;
19675;SDS011;39539;52.202;9.876;2024-01-15T02:28:10;6.63;;;3.42;;
19675;SDS011;39539;52.202;9.876;2024-01-15T02:30:37;6.22;;;3.28;;
19675;SDS011;39539;52.202;9.876;2024-01-15T02:33:06;6.90;;;3.40;;
19675;SDS011;39539;52.202;9.876;2024-01-15T02:35:32;7.80;;;3.13;;
19675;SDS011;39539;52.202;9.876;2024-01-15T02:37:58;9.38;;;3.00;;
19675;SDS011;39539;52.202;9.876;2024-01-15T02:40:24;10.13;;;3.20;;
19675;SDS011;39539;52.202;9.876;2024-01-15T02:42:49;7.18;;;3.13;;
19675;SDS011;39539;52.202;9.876;2024-01-15T02:45:15;5.07;;;2.80;;
19675;SDS011;39539;52.202;9.876;2024-01-15T02:47:40;5.32;;;2.40;;
19675;SDS011;39539;52.202;9.876;2024-01-15T02:50:06;7.43;;;2.80;;
19675;SDS011;39539;52.202;9.876;2024-01-15T02:52:33;9.52;;;3.33;;
19675;SDS011;39539;52.202;9.876;2024-01-15T02:54:58;8.68;;;2.88;;
19675;SDS011;39539;52.202;9.876;2024-01-15T02:57:24;5.43;;;2.90;;
19675;SDS011;39539;52.202;9.876;2024-01-15T02:59:49;4.22;;;1.95;;
19675;SDS011;39539;52.202;9.876;2024-01-15T03:02:14;7.20;;;2.47;;
19675;SDS011;39539;52.202;9.876;2024-01-15T03:04:43;6.65;;;2.55;;
19675;SDS011;39539;52.202;9.876;2024-01-15T03:07:09;5.40;;;2.55;;
19675;SDS011;39539;52.202;9.876;2024-01-15T03:09:34;4.65;;;2.28;;
19675;SDS011;39539;52.202;9.876;2024-01-15T03:11:59;5.13;;;2.15;;
19675;SDS011;39539;52.202;9.876;2024-01-15T03:14:25;6.75;;;2.88;;
19675;SDS011;39539;52.202;9.876;2024-01-15T03:16:51;5.40;;;2.53;;
19675;SDS011;39539;52.202;9.876;2024-01-15T03:19:17;3.97;;;2.50;;
19675;SDS011;39539;52.202;9.876;2024-01-15T03:21:42;6.60;;;2.53;;
19675;SDS011;39539;52.202;9.876;2024-01-15T03:24:07;7.85;;;2.70;;
19675;SDS011;39539;52.202;9.876;2024-01-15T03:26:32;5.95;;;2.53;;
19675;SDS011;39539;52.202;9.876;2024-01-15T03:28:58;6.65;;;2.80;;
19675;SDS011;39539;52.202;9.876;2024-01-15T03:31:23;4.97;;;2.60;;
19675;SDS011;39539;52.202;9.876;2024-01-15T03:33:49;7.55;;;2.17;;
19675;SDS011;39539;52.202;9.876;2024-01-15T03:36:14;6.85;;;2.47;;
19675;SDS011;39539;52.202;9.876;2024-01-15T03:38:40;6.57;;;2.58;;
19675;SDS011;39539;52.202;9.876;2024-01-15T03:41:06;10.30;;;2.80;;
19675;SDS011;39539;52.202;9.876;2024-01-15T03:43:31;6.22;;;2.90;;
19675;SDS011;39539;52.202;9.876;2024-01-15T03:45:57;4.68;;;2.78;;
19675;SDS011;39539;52.202;9.876;2024-01-15T03:48:22;3.88;;;2.38;;
19675;SDS011;39539;52.202;9.876;2024-01-15T03:50:47;4.32;;;2.28;;
19675;SDS011;39539;52.202;9.876;2024-01-15T03:53:13;8.10;;;2.63;;
19675;SDS011;39539;52.202;9.876;2024-01-15T03:55:38;3.92;;;2.08;;
19675;SDS011;39539;52.202;9.876;2024-01-15T03:58:04;4.93;;;2.47;;
19675;SDS011;39539;52.202;9.876;2024-01-15T04:00:29;10.30;;;2.42;;
19675;SDS011;39539;52.202;9.876;2024-01-15T04:02:54;6.32;;;2.22;;
19675;SDS011;39539;52.202;9.876;2024-01-15T04:05:20;5.85;;;2.25;;
19675;SDS011;39539;52.202;9.876;2024-01-15T04:07:45;7.25;;;2.20;;
19675;SDS011;39539;52.202;9.876;2024-01-15T04:10:11;5.03;;;2.20;;
19675;SDS011;39539;52.202;9.876;2024-01-15T04:12:36;7.57;;;2.15;;
19675;SDS011;39539;52.202;9.876;2024-01-15T04:15:01;5.97;;;1.98;;
19675;SDS011;39539;52.202;9.876;2024-01-15T04:17:27;4.78;;;2.50;;
19675;SDS011;39539;52.202;9.876;2024-01-15T04:19:53;6.13;;;2.28;;
19675;SDS011;39539;52.202;9.876;2024-01-15T04:22:18;5.63;;;2.33;;
19675;SDS011;39539;52.202;9.876;2024-01-15T04:24:43;3.38;;;2.03;;
19675;SDS011;39539;52.202;9.876;2024-01-15T04:27:09;4.43;;;2.25;;
19675;SDS011;39539;52.202;9.876;2024-01-15T04:29:34;5.32;;;2.38;;
19675;SDS011;39539;52.202;9.876;2024-01-15T04:31:59;9.70;;;2.42;;
19675;SDS011;39539;52.202;9.876;2024-01-15T04:34:25;4.28;;;1.98;;
19675;SDS011;39539;52.202;9.876;2024-01-15T04:36:50;7.88;;;2.03;;
19675;SDS011;39539;52.202;9.876;2024-01-15T04:39:15;6.30;;;2.00;;
19675;SDS011;39539;52.202;9.876;2024-01-15T04:41:40;4.95;;;2.17;;
19675;SDS011;39539;52.202;9.876;2024-01-15T04:44:06;9.00;;;2.13;;
19675;SDS011;39539;52.202;9.876;2024-01-15T04:46:31;7.78;;;2.10;;
19675;SDS011;39539;52.202;9.876;2024-01-15T04:48:57;4.28;;;2.40;;
19675;SDS011;39539;52.202;9.876;2024-01-15T04:51:22;6.65;;;2.53;;
19675;SDS011;39539;52.202;9.876;2024-01-15T04:53:47;5.28;;;2.20;;
19675;SDS011;39539;52.202;9.876;2024-01-15T04:56:12;3.53;;;1.88;;
19675;SDS011;39539;52.202;9.876;2024-01-15T04:58:38;9.20;;;2.10;;
19675;SDS011;39539;52.202;9.876;2024-01-15T05:01:03;3.78;;;1.85;;
19675;SDS011;39539;52.202;9.876;2024-01-15T05:03:32;7.88;;;2.83;;
19675;SDS011;39539;52.202;9.876;2024-01-15T05:05:57;5.00;;;2.40;;
19675;SDS011;39539;52.202;9.876;2024-01-15T05:08:22;5.80;;;1.70;;
19675;SDS011;39539;52.202;9.876;2024-01-15T05:10:47;3.65;;;2.30;;
19675;SDS011;39539;52.202;9.876;2024-01-15T05:13:13;4.07;;;2.20;;
19675;SDS011;39539;52.202;9.876;2024-01-15T05:15:38;7.45;;;2.30;;
19675;SDS011;39539;52.202;9.876;2024-01-15T05:18:04;5.20;;;2.08;;
19675;SDS011;39539;52.202;9.876;2024-01-15T05:20:29;3.80;;;2.67;;
19675;SDS011;39539;52.202;9.876;2024-01-15T05:22:55;4.65;;;2.30;;
19675;SDS011;39539;52.202;9.876;2024-01-15T05:25:20;5.38;;;2.33;;
19675;SDS011;39539;52.202;9.876;2024-01-15T05:27:45;8.68;;;2.25;;
19675;SDS011;39539;52.202;9.876;2024-01-15T05:30:11;5.82;;;2.10;;
19675;SDS011;39539;52.202;9.876;2024-01-15T05:32:36;6.53;;;2.47;;
19675;SDS011;39539;52.202;9.876;2024-01-15T05:35:02;5.40;;;2.47;;
19675;SDS011;39539;52.202;9.876;2024-01-15T05:37:28;5.38;;;2.40;;
19675;SDS011;39539;52.202;9.876;2024-01-15T05:39:54;5.38;;;2.50;;
19675;SDS011;39539;52.202;9.876;2024-01-15T05:42:19;8.10;;;2.85;;
19675;SDS011;39539;52.202;9.876;2024-01-15T05:44:44;5.07;;;2.90;;
19675;SDS011;39539;52.202;9.876;2024-01-15T05:47:11;5.18;;;2.92;;
19675;SDS011;39539;52.202;9.876;2024-01-15T05:49:36;6.45;;;3.50;;
19675;SDS011;39539;52.202;9.876;2024-01-15T05:52:02;8.85;;;3.00;;
19675;SDS011;39539;52.202;9.876;2024-01-15T05:54:27;8.85;;;2.80;;
19675;SDS011;39539;52.202;9.876;2024-01-15T05:56:53;3.78;;;2.85;;
19675;SDS011;39539;52.202;9.876;2024-01-15T05:59:18;9.60;;;3.30;;
19675;SDS011;39539;52.202;9.876;2024-01-15T06:01:44;8.65;;;3.53;;
19675;SDS011;39539;52.202;9.876;2024-01-15T06:04:09;11.85;;;3.10;;
19675;SDS011;39539;52.202;9.876;2024-01-15T06:06:34;3.85;;;3.05;;
19675;SDS011;39539;52.202;9.876;2024-01-15T06:09:00;5.05;;;3.28;;
19675;SDS011;39539;52.202;9.876;2024-01-15T06:11:30;7.13;;;3.25;;
19675;SDS011;39539;52.202;9.876;2024-01-15T06:13:56;7.28;;;3.20;;
19675;SDS011;39539;52.202;9.876;2024-01-15T06:16:21;5.80;;;3.20;;
19675;SDS011;39539;52.202;9.876;2024-01-15T06:18:49;6.40;;;3.00;;
19675;SDS011;39539;52.202;9.876;2024-01-15T06:21:14;5.97;;;3.22;;
19675;SDS011;39539;52.202;9.876;2024-01-15T06:23:41;3.75;;;2.97;;
19675;SDS011;39539;52.202;9.876;2024-01-15T06:26:06;6.20;;;3.13;;
19675;SDS011;39539;52.202;9.876;2024-01-15T06:28:32;5.70;;;2.80;;
19675;SDS011;39539;52.202;9.876;2024-01-15T06:30:57;4.35;;;2.70;;
19675;SDS011;39539;52.202;9.876;2024-01-15T06:33:29;5.38;;;2.72;;
19675;SDS011;39539;52.202;9.876;2024-01-15T06:35:57;4.40;;;2.22;;
19675;SDS011;39539;52.202;9.876;2024-01-15T06:38:25;5.05;;;2.40;;
19675;SDS011;39539;52.202;9.876;2024-01-15T06:40:51;3.15;;;2.40;;
19675;SDS011;39539;52.202;9.876;2024-01-15T06:43:17;6.80;;;2.78;;
19675;SDS011;39539;52.202;9.876;2024-01-15T06:45:45;4.53;;;2.58;;
19675;SDS011;39539;52.202;9.876;2024-01-15T06:48:11;7.75;;;2.65;;
19675;SDS011;39539;52.202;9.876;2024-01-15T06:50:39;9.35;;;3.17;;
19675;SDS011;39539;52.202;9.876;2024-01-15T06:53:05;4.20;;;2.65;;
19675;SDS011;39539;52.202;9.876;2024-01-15T06:55:30;6.00;;;3.13;;
19675;SDS011;39539;52.202;9.876;2024-01-15T06:57:56;7.82;;;2.85;;
19675;SDS011;39539;52.202;9.876;2024-01-15T07:00:21;6.15;;;3.00;;
19675;SDS011;39539;52.202;9.876;2024-01-15T07:02:47;6.95;;;2.65;;
19675;SDS011;39539;52.202;9.876;2024-01-15T07:05:12;4.80;;;2.33;;
19675;SDS011;39539;52.202;9.876;2024-01-15T07:07:38;5.18;;;2.75;;
19675;SDS011;39539;52.202;9.876;2024-01-15T07:10:03;6.43;;;2.42;;
19675;SDS011;39539;52.202;9.876;2024-01-15T07:12:30;4.93;;;2.85;;
19675;SDS011;39539;52.202;9.876;2024-01-15T07:15:00;4.22;;;2.33;;
19675;SDS011;39539;52.202;9.876;2024-01-15T07:17:27;5.60;;;3.20;;
19675;SDS011;39539;52.202;9.876;2024-01-15T07:19:53;6.55;;;2.70;;
19675;SDS011;39539;52.202;9.876;2024-01-15T07:22:18;7.18;;;2.83;;
19675;SDS011;39539;52.202;9.876;2024-01-15T07:24:44;3.35;;;2.50;;
19675;SDS011;39539;52.202;9.876;2024-01-15T07:27:10;2.83;;;2.45;;
19675;SDS011;39539;52.202;9.876;2024-01-15T07:29:36;5.32;;;2.63;;
19675;SDS011;39539;52.202;9.876;2024-01-15T07:32:03;7.40;;;3.10;;
19675;SDS011;39539;52.202;9.876;2024-01-15T07:34:30;3.55;;;2.47;;
19675;SDS011;39539;52.202;9.876;2024-01-15T07:36:56;5.05;;;2.67;;
19675;SDS011;39539;52.202;9.876;2024-01-15T07:39:22;6.90;;;2.72;;
19675;SDS011;39539;52.202;9.876;2024-01-15T07:41:51;4.53;;;2.80;;
19675;SDS011;39539;52.202;9.876;2024-01-15T07:44:18;3.10;;;2.40;;
19675;SDS011;39539;52.202;9.876;2024-01-15T07:46:44;4.43;;;2.88;;
19675;SDS011;39539;52.202;9.876;2024-01-15T07:49:10;4.07;;;2.55;;
19675;SDS011;39539;52.202;9.876;2024-01-15T07:51:36;2.65;;;2.45;;
19675;SDS011;39539;52.202;9.876;2024-01-15T07:54:01;3.88;;;2.67;;
19675;SDS011;39539;52.202;9.876;2024-01-15T07:56:30;3.47;;;2.28;;
19675;SDS011;39539;52.202;9.876;2024-01-15T07:58:56;2.70;;;2.35;;
19675;SDS011;39539;52.202;9.876;2024-01-15T08:01:22;3.85;;;2.45;;
19675;SDS011;39539;52.202;9.876;2024-01-15T08:03:49;2.90;;;2.22;;
19675;SDS011;39539;52.202;9.876;2024-01-15T08:06:14;3.95;;;2.33;;
19675;SDS011;39539;52.202;9.876;2024-01-15T08:08:40;2.72;;;2.13;;
19675;SDS011;39539;52.202;9.876;2024-01-15T08:11:05;2.38;;;2.10;;
19675;SDS011;39539;52.202;9.876;2024-01-15T08:13:31;6.65;;;2.33;;
19675;SDS011;39539;52.202;9.876;2024-01-15T08:15:56;4.65;;;1.95;;
19675;SDS011;39539;52.202;9.876;2024-01-15T08:18:22;3.83;;;1.80;;
19675;SDS011;39539;52.202;9.876;2024-01-15T08:20:47;2.22;;;2.03;;
19675;SDS011;39539;52.202;9.876;2024-01-15T08:23:13;3.70;;;1.70;;
19675;SDS011;39539;52.202;9.876;2024-01-15T08:25:38;3.88;;;2.13;;
19675;SDS011;39539;52.202;9.876;2024-01-15T08:28:04;3.08;;;2.00;;
19675;SDS011;39539;52.202;9.876;2024-01-15T08:30:31;4.53;;;2.00;;
19675;SDS011;39539;52.202;9.876;2024-01-15T08:32:56;4.07;;;2.58;;
19675;SDS011;39539;52.202;9.876;2024-01-15T08:35:22;4.47;;;2.20;;
19675;SDS011;39539;52.202;9.876;2024-01-15T08:37:51;5.93;;;2.75;;
19675;SDS011;39539;52.202;9.876;2024-01-15T08:40:17;3.20;;;2.05;;
19675;SDS011;39539;52.202;9.876;2024-01-15T08:42:44;3.95;;;2.28;;
19675;SDS011;39539;52.202;9.876;2024-01-15T08:45:14;2.50;;;1.85;;
19675;SDS011;39539;52.202;9.876;2024-01-15T08:47:39;4.75;;;2.00;;
19675;SDS011;39539;52.202;9.876;2024-01-15T08:50:05;4.28;;;1.95;;
19675;SDS011;39539;52.202;9.876;2024-01-15T08:52:35;2.10;;;1.90;;
19675;SDS011;39539;52.202;9.876;2024-01-15T08:55:01;1.80;;;1.70;;
19675;SDS011;39539;52.202;9.876;2024-01-15T08:57:27;5.97;;;2.13;;
19675;SDS011;39539;52.202;9.876;2024-01-15T08:59:52;2.10;;;1.90;;
19675;SDS011;39539;52.202;9.876;2024-01-15T09:02:17;2.95;;;2.10;;
19675;SDS011;39539;52.202;9.876;2024-01-15T09:04:43;1.98;;;1.75;;
19675;SDS011;39539;52.202;9.876;2024-01-15T09:07:10;3.13;;;2.15;;
19675;SDS011;39539;52.202;9.876;2024-01-15T09:09:35;3.67;;;2.40;;
19675;SDS011;39539;52.202;9.876;2024-01-15T09:12:01;2.90;;;1.90;;
19675;SDS011;39539;52.202;9.876;2024-01-15T09:14:27;3.40;;;1.92;;
19675;SDS011;39539;52.202;9.876;2024-01-15T09:16:54;2.50;;;1.77;;
19675;SDS011;39539;52.202;9.876;2024-01-15T09:19:19;2.42;;;1.65;;
19675;SDS011;39539;52.202;9.876;2024-01-15T09:21:45;3.17;;;2.03;;
19675;SDS011;39539;52.202;9.876;2024-01-15T09:24:10;5.40;;;1.88;;
19675;SDS011;39539;52.202;9.876;2024-01-15T09:26:36;4.93;;;2.60;;
19675;SDS011;39539;52.202;9.876;2024-01-15T09:29:01;5.63;;;2.20;;
19675;SDS011;39539;52.202;9.876;2024-01-15T09:31:28;2.38;;;2.10;;
19675;SDS011;39539;52.202;9.876;2024-01-15T09:33:53;4.40;;;2.45;;
19675;SDS011;39539;52.202;9.876;2024-01-15T09:36:21;2.55;;;2.15;;
19675;SDS011;39539;52.202;9.876;2024-01-15T09:38:48;4.85;;;2.00;;
19675;SDS011;39539;52.202;9.876;2024-01-15T09:41:14;5.20;;;2.20;;
19675;SDS011;39539;52.202;9.876;2024-01-15T09:43:40;3.40;;;2.00;;
19675;SDS011;39539;52.202;9.876;2024-01-15T09:46:05;4.88;;;2.20;;
19675;SDS011;39539;52.202;9.876;2024-01-15T09:48:32;4.95;;;1.98;;
19675;SDS011;39539;52.202;9.876;2024-01-15T09:51:01;7.15;;;2.05;;
19675;SDS011;39539;52.202;9.876;2024-01-15T09:53:27;4.32;;;2.20;;
19675;SDS011;39539;52.202;9.876;2024-01-15T09:55:53;3.80;;;1.98;;
19675;SDS011;39539;52.202;9.876;2024-01-15T09:58:18;6.22;;;2.10;;
19675;SDS011;39539;52.202;9.876;2024-01-15T10:00:44;3.10;;;1.77;;
19675;SDS011;39539;52.202;9.876;2024-01-15T10:03:12;3.47;;;1.85;;
19675;SDS011;39539;52.202;9.876;2024-01-15T10:05:38;3.25;;;1.80;;
19675;SDS011;39539;52.202;9.876;2024-01-15T10:08:04;4.68;;;1.73;;
19675;SDS011;39539;52.202;9.876;2024-01-15T10:10:30;5.40;;;2.03;;
19675;SDS011;39539;52.202;9.876;2024-01-15T10:12:56;4.88;;;1.42;;
19675;SDS011;39539;52.202;9.876;2024-01-15T10:15:24;3.47;;;2.00;;
19675;SDS011;39539;52.202;9.876;2024-01-15T10:17:51;2.35;;;1.10;;
19675;SDS011;39539;52.202;9.876;2024-01-15T10:20:17;2.80;;;1.70;;
19675;SDS011;39539;52.202;9.876;2024-01-15T10:22:42;4.28;;;1.70;;
19675;SDS011;39539;52.202;9.876;2024-01-15T10:25:12;3.42;;;1.77;;
19675;SDS011;39539;52.202;9.876;2024-01-15T10:27:38;2.58;;;1.77;;
19675;SDS011;39539;52.202;9.876;2024-01-15T10:30:06;3.75;;;2.03;;
19675;SDS011;39539;52.202;9.876;2024-01-15T10:32:33;4.93;;;1.80;;
19675;SDS011;39539;52.202;9.876;2024-01-15T10:34:58;3.63;;;1.75;;
19675;SDS011;39539;52.202;9.876;2024-01-15T10:37:24;4.47;;;1.50;;
19675;SDS011;39539;52.202;9.876;2024-01-15T10:39:50;1.88;;;1.73;;
19675;SDS011;39539;52.202;9.876;2024-01-15T10:42:16;4.30;;;1.48;;
19675;SDS011;39539;52.202;9.876;2024-01-15T10:44:43;2.25;;;1.20;;
19675;SDS011;39539;52.202;9.876;2024-01-15T10:47:10;3.17;;;1.52;;
19675;SDS011;39539;52.202;9.876;2024-01-15T10:49:37;3.10;;;1.52;;
19675;SDS011;39539;52.202;9.876;2024-01-15T10:52:02;1.75;;;1.35;;
19675;SDS011;39539;52.202;9.876;2024-01-15T10:54:29;2.63;;;1.63;;
19675;SDS011;39539;52.202;9.876;2024-01-15T10:56:58;4.40;;;1.40;;
19675;SDS011;39539;52.202;9.876;2024-01-15T10:59:24;3.05;;;1.45;;
19675;SDS011;39539;52.202;9.876;2024-01-15T11:01:50;3.55;;;1.33;;
19675;SDS011;39539;52.202;9.876;2024-01-15T11:04:19;2.55;;;1.60;;
19675;SDS011;39539;52.202;9.876;2024-01-15T11:06:47;3.72;;;1.35;;
19675;SDS011;39539;52.202;9.876;2024-01-15T11:09:15;3.63;;;1.48;;
19675;SDS011;39539;52.202;9.876;2024-01-15T11:11:47;2.88;;;1.42;;
19675;SDS011;39539;52.202;9.876;2024-01-15T11:14:33;2.60;;;1.60;;
19675;SDS011;39539;52.202;9.876;2024-01-15T11:17:22;3.28;;;1.67;;
19675;SDS011;39539;52.202;9.876;2024-01-15T11:19:48;2.05;;;1.40;;
19675;SDS011;39539;52.202;9.876;2024-01-15T11:24:55;4.25;;;1.80;;
19675;SDS011;39539;52.202;9.876;2024-01-15T11:30:10;2.80;;;1.60;;
19675;SDS011;39539;52.202;9.876;2024-01-15T11:32:37;1.73;;;1.60;;
19675;SDS011;39539;52.202;9.876;2024-01-15T11:35:07;2.80;;;1.60;;
19675;SDS011;39539;52.202;9.876;2024-01-15T11:40:17;3.42;;;1.60;;
19675;SDS011;39539;52.202;9.876;2024-01-15T11:42:44;4.18;;;1.75;;
19675;SDS011;39539;52.202;9.876;2024-01-15T11:45:11;3.17;;;1.98;;
19675;SDS011;39539;52.202;9.876;2024-01-15T11:47:50;3.63;;;2.08;;
19675;SDS011;39539;52.202;9.876;2024-01-15T11:50:30;3.85;;;2.70;;
19675;SDS011;39539;52.202;9.876;2024-01-15T11:53:01;5.95;;;2.53;;
19675;SDS011;39539;52.202;9.876;2024-01-15T11:58:01;4.30;;;1.95;;
19675;SDS011;39539;52.202;9.876;2024-01-15T12:00:31;2.70;;;1.48;;
19675;SDS011;39539;52.202;9.876;2024-01-15T12:02:58;4.03;;;1.83;;
19675;SDS011;39539;52.202;9.876;2024-01-15T12:05:24;5.40;;;2.25;;
19675;SDS011;39539;52.202;9.876;2024-01-15T12:07:50;7.35;;;2.03;;
19675;SDS011;39539;52.202;9.876;2024-01-15T12:10:17;3.38;;;1.70;;
19675;SDS011;39539;52.202;9.876;2024-01-15T12:12:47;6.00;;;1.98;;
19675;SDS011;39539;52.202;9.876;2024-01-15T12:15:25;5.13;;;1.73;;
19675;SDS011;39539;52.202;9.876;2024-01-15T12:17:52;5.10;;;1.80;;
19675;SDS011;39539;52.202;9.876;2024-01-15T12:20:19;2.03;;;1.70;;
19675;SDS011;39539;52.202;9.876;2024-01-15T12:22:45;2.15;;;1.80;;
19675;SDS011;39539;52.202;9.876;2024-01-15T12:25:11;2.80;;;1.52;;
19675;SDS011;39539;52.202;9.876;2024-01-15T12:27:36;1.92;;;1.50;;
19675;SDS011;39539;52.202;9.876;2024-01-15T12:30:02;8.25;;;2.50;;
19675;SDS011;39539;52.202;9.876;2024-01-15T12:32:28;2.25;;;1.70;;
19675;SDS011;39539;52.202;9.876;2024-01-15T12:34:54;1.88;;;1.55;;
19675;SDS011;39539;52.202;9.876;2024-01-15T12:37:20;3.72;;;1.70;;
19675;SDS011;39539;52.202;9.876;2024-01-15T12:39:46;2.50;;;1.20;;
19675;SDS011;39539;52.202;9.876;2024-01-15T12:42:13;3.17;;;1.42;;
19675;SDS011;39539;52.202;9.876;2024-01-15T12:44:39;4.18;;;2.05;;
19675;SDS011;39539;52.202;9.876;2024-01-15T12:47:05;6.55;;;1.48;;
19675;SDS011;39539;52.202;9.876;2024-01-15T12:49:47;2.42;;;1.40;;
19675;SDS011;39539;52.202;9.876;2024-01-15T12:52:18;4.88;;;1.40;;
19675;SDS011;39539;52.202;9.876;2024-01-15T12:54:44;6.57;;;1.70;;
19675;SDS011;39539;52.202;9.876;2024-01-15T12:57:09;5.90;;;1.70;;
19675;SDS011;39539;52.202;9.876;2024-01-15T12:59:35;4.00;;;1.45;;
19675;SDS011;39539;52.202;9.876;2024-01-15T13:02:00;5.22;;;1.58;;
19675;SDS011;39539;52.202;9.876;2024-01-15T13:04:26;3.15;;;1.52;;
19675;SDS011;39539;52.202;9.876;2024-01-15T13:06:51;2.50;;;1.70;;
19675;SDS011;39539;52.202;9.876;2024-01-15T13:09:18;3.80;;;1.65;;
19675;SDS011;39539;52.202;9.876;2024-01-15T13:11:44;3.63;;;1.40;;
19675;SDS011;39539;52.202;9.876;2024-01-15T13:14:10;2.60;;;1.23;;
19675;SDS011;39539;52.202;9.876;2024-01-15T13:16:36;4.95;;;1.50;;
19675;SDS011;39539;52.202;9.876;2024-01-15T13:19:01;2.40;;;1.30;;
19675;SDS011;39539;52.202;9.876;2024-01-15T13:21:28;3.35;;;1.48;;
19675;SDS011;39539;52.202;9.876;2024-01-15T13:23:54;3.58;;;1.33;;
19675;SDS011;39539;52.202;9.876;2024-01-15T13:26:20;3.05;;;1.58;;
19675;SDS011;39539;52.202;9.876;2024-01-15T13:28:46;3.60;;;1.38;;
19675;SDS011;39539;52.202;9.876;2024-01-15T13:31:11;4.95;;;1.20;;
19675;SDS011;39539;52.202;9.876;2024-01-15T13:33:38;3.25;;;1.73;;
19675;SDS011;39539;52.202;9.876;2024-01-15T13:36:03;3.33;;;1.27;;
19675;SDS011;39539;52.202;9.876;2024-01-15T13:38:33;3.17;;;1.13;;
19675;SDS011;39539;52.202;9.876;2024-01-15T13:41:01;1.70;;;1.30;;
19675;SDS011;39539;52.202;9.876;2024-01-15T13:43:27;2.55;;;1.10;;
19675;SDS011;39539;52.202;9.876;2024-01-15T13:45:53;1.77;;;1.15;;
19675;SDS011;39539;52.202;9.876;2024-01-15T13:48:19;2.00;;;1.10;;
19675;SDS011;39539;52.202;9.876;2024-01-15T13:50:45;5.55;;;1.38;;
19675;SDS011;39539;52.202;9.876;2024-01-15T13:53:11;2.75;;;1.00;;
19675;SDS011;39539;52.202;9.876;2024-01-15T13:55:36;4.88;;;1.25;;
19675;SDS011;39539;52.202;9.876;2024-01-15T13:58:03;3.67;;;2.00;;
19675;SDS011;39539;52.202;9.876;2024-01-15T14:00:31;4.13;;;1.65;;
19675;SDS011;39539;52.202;9.876;2024-01-15T14:02:56;2.25;;;1.40;;
19675;SDS011;39539;52.202;9.876;2024-01-15T14:05:22;2.80;;;1.70;;
19675;SDS011;39539;52.202;9.876;2024-01-15T14:07:48;3.97;;;1.65;;
19675;SDS011;39539;52.202;9.876;2024-01-15T14:10:13;3.45;;;1.70;;
19675;SDS011;39539;52.202;9.876;2024-01-15T14:12:39;3.67;;;1.73;;
19675;SDS011;39539;52.202;9.876;2024-01-15T14:15:05;2.95;;;1.40;;
19675;SDS011;39539;52.202;9.876;2024-01-15T14:17:31;3.83;;;2.45;;
19675;SDS011;39539;52.202;9.876;2024-01-15T14:19:56;2.33;;;1.40;;
19675;SDS011;39539;52.202;9.876;2024-01-15T14:22:22;2.03;;;1.40;;
19675;SDS011;39539;52.202;9.876;2024-01-15T14:24:48;2.70;;;1.40;;
19675;SDS011;39539;52.202;9.876;2024-01-15T14:27:13;4.75;;;1.50;;
19675;SDS011;39539;52.202;9.876;2024-01-15T14:29:39;3.50;;;1.52;;
19675;SDS011;39539;52.202;9.876;2024-01-15T14:32:04;2.28;;;1.40;;
19675;SDS011;39539;52.202;9.876;2024-01-15T14:34:30;1.90;;;1.80;;
19675;SDS011;39539;52.202;9.876;2024-01-15T14:36:55;1.92;;;1.48;;
19675;SDS011;39539;52.202;9.876;2024-01-15T14:39:21;2.80;;;1.25;;
19675;SDS011;39539;52.202;9.876;2024-01-15T14:41:47;2.20;;;1.60;;
19675;SDS011;39539;52.202;9.876;2024-01-15T14:44:13;6.60;;;2.10;;
19675;SDS011;39539;52.202;9.876;2024-01-15T14:46:39;2.25;;;1.45;;
19675;SDS011;39539;52.202;9.876;2024-01-15T14:49:05;2.78;;;1.45;;
19675;SDS011;39539;52.202;9.876;2024-01-15T14:51:30;4.72;;;1.70;;
19675;SDS011;39539;52.202;9.876;2024-01-15T14:53:56;2.65;;;1.90;;